createdAt,value
2017-09-30T00:02:07.994Z,37.70
2017-09-30T00:04:37.696Z,38.20
2017-09-30T00:07:06.905Z,37.90
2017-09-30T00:09:36.298Z,43.30
2017-09-30T00:12:05.451Z,43.37
2017-09-30T00:14:33.826Z,39.07
2017-09-30T00:17:03.455Z,37.00
2017-09-30T00:19:32.615Z,40.27
2017-09-30T00:22:00.989Z,41.47
2017-09-30T00:24:29.537Z,40.47
2017-09-30T00:26:57.940Z,38.07
2017-09-30T00:29:28.041Z,39.77
2017-09-30T00:31:57.447Z,36.50
2017-09-30T00:34:25.825Z,37.53
2017-09-30T00:36:54.217Z,37.87
2017-09-30T00:39:22.818Z,39.40
2017-09-30T00:41:51.281Z,39.00
2017-09-30T00:44:19.645Z,40.50
2017-09-30T00:46:48.944Z,41.73
2017-09-30T00:49:18.098Z,39.80
2017-09-30T00:51:46.494Z,40.20
2017-09-30T00:54:15.090Z,43.23
2017-09-30T00:56:44.294Z,40.00
2017-09-30T00:59:12.717Z,39.90
2017-09-30T01:01:41.271Z,41.63
2017-09-30T01:04:09.680Z,37.30
2017-09-30T01:06:38.113Z,41.27
2017-09-30T01:09:07.635Z,40.70
2017-09-30T01:11:36.039Z,39.33
2017-09-30T01:14:04.478Z,38.10
2017-09-30T01:16:33.269Z,36.47
2017-09-30T01:19:01.900Z,36.60
2017-09-30T01:21:30.383Z,35.90
2017-09-30T01:23:58.940Z,37.60
2017-09-30T01:26:27.403Z,36.70
2017-09-30T01:28:55.858Z,35.43
2017-09-30T01:31:24.390Z,36.30
2017-09-30T01:33:52.835Z,36.77
2017-09-30T01:36:22.045Z,42.07
2017-09-30T01:38:50.502Z,40.53
2017-09-30T01:41:19.071Z,43.13
2017-09-30T01:43:47.785Z,41.00
2017-09-30T01:46:16.399Z,43.90
2017-09-30T01:48:45.755Z,46.47
2017-09-30T01:51:15.910Z,44.80
2017-09-30T01:53:45.349Z,47.00
2017-09-30T01:56:13.846Z,48.13
2017-09-30T01:58:43.046Z,44.77
2017-09-30T02:01:18.992Z,43.67
2017-09-30T02:03:47.408Z,39.77
2017-09-30T02:06:16.986Z,40.73
2017-09-30T02:08:46.212Z,39.60
2017-09-30T02:11:15.401Z,41.80
2017-09-30T02:13:44.642Z,40.00
2017-09-30T02:16:13.221Z,39.70
2017-09-30T02:18:41.816Z,38.83
2017-09-30T02:21:10.453Z,41.63
2017-09-30T02:23:39.141Z,38.50
2017-09-30T02:26:07.601Z,40.33
2017-09-30T02:28:35.973Z,39.57
2017-09-30T02:31:04.496Z,40.27
2017-09-30T02:33:32.956Z,40.20
2017-09-30T02:36:01.357Z,37.23
2017-09-30T02:38:30.597Z,40.40
2017-09-30T02:40:58.975Z,42.30
2017-09-30T02:43:28.283Z,43.03
2017-09-30T02:45:56.768Z,43.77
2017-09-30T02:48:25.162Z,42.83
2017-09-30T02:50:54.313Z,44.27
2017-09-30T02:53:22.764Z,43.07
2017-09-30T02:55:51.964Z,45.40
2017-09-30T02:58:22.162Z,44.10
2017-09-30T03:00:50.666Z,42.00
2017-09-30T03:03:19.159Z,44.00
2017-09-30T03:05:47.547Z,45.00
2017-09-30T03:08:16.191Z,48.97
2017-09-30T03:10:44.586Z,45.00
2017-09-30T03:13:13.773Z,48.17
2017-09-30T03:15:42.245Z,51.50
2017-09-30T03:18:10.610Z,47.90
2017-09-30T03:20:39.061Z,47.20
2017-09-30T03:23:07.885Z,53.47
2017-09-30T03:25:36.287Z,48.70
2017-09-30T03:28:04.703Z,49.83
2017-09-30T03:30:33.636Z,50.20
2017-09-30T03:33:02.083Z,47.13
2017-09-30T03:35:30.506Z,48.70
2017-09-30T03:37:58.939Z,46.80
2017-09-30T03:40:28.142Z,49.30
2017-09-30T03:42:56.587Z,47.93
2017-09-30T03:45:26.603Z,45.90
2017-09-30T03:47:55.041Z,47.30
2017-09-30T03:50:23.388Z,43.30
2017-09-30T03:52:51.894Z,45.37
2017-09-30T03:55:20.924Z,45.33
2017-09-30T03:57:50.070Z,43.23
2017-09-30T04:00:20.234Z,41.20
2017-09-30T04:02:51.040Z,41.67
2017-09-30T04:05:19.800Z,42.10
2017-09-30T04:07:49.333Z,41.93
2017-09-30T04:10:17.946Z,44.23
2017-09-30T04:12:47.085Z,41.47
2017-09-30T04:15:15.642Z,40.77
2017-09-30T04:17:44.867Z,41.40
2017-09-30T04:20:13.248Z,42.03
2017-09-30T04:22:41.807Z,43.90
2017-09-30T04:25:10.366Z,43.43
2017-09-30T04:27:40.411Z,43.80
2017-09-30T04:30:10.755Z,42.73
2017-09-30T04:32:39.128Z,43.17
2017-09-30T04:35:07.674Z,44.63
2017-09-30T04:37:36.997Z,46.07
2017-09-30T04:40:05.792Z,43.53
2017-09-30T04:42:34.884Z,44.77
2017-09-30T04:45:03.751Z,46.20
2017-09-30T04:47:33.114Z,45.80
2017-09-30T04:50:01.525Z,43.87
2017-09-30T04:52:30.525Z,41.43
2017-09-30T04:55:00.261Z,43.10
2017-09-30T04:57:28.681Z,46.27
2017-09-30T04:59:57.442Z,43.40
2017-09-30T05:02:25.944Z,46.87
2017-09-30T05:04:54.388Z,47.33
2017-09-30T05:07:23.581Z,45.33
2017-09-30T05:09:51.983Z,45.67
2017-09-30T05:12:20.984Z,45.17
2017-09-30T05:14:49.881Z,48.33
2017-09-30T05:17:18.457Z,47.70
2017-09-30T05:19:46.866Z,49.30
2017-09-30T05:22:15.457Z,53.60
2017-09-30T05:24:45.022Z,53.13
2017-09-30T05:27:14.619Z,53.50
2017-09-30T05:29:43.350Z,49.27
2017-09-30T05:32:11.737Z,55.57
2017-09-30T05:34:40.216Z,52.07
2017-09-30T05:37:09.180Z,53.97
2017-09-30T05:39:37.576Z,55.67
2017-09-30T05:42:06.857Z,46.80
2017-09-30T05:44:35.295Z,40.77
2017-09-30T05:47:03.686Z,43.67
2017-09-30T05:49:33.217Z,43.27
2017-09-30T05:52:02.741Z,42.87
2017-09-30T05:54:32.767Z,47.10
2017-09-30T05:57:01.185Z,42.80
2017-09-30T05:59:30.517Z,48.00
2017-09-30T06:01:58.939Z,48.23
2017-09-30T06:04:28.328Z,45.10
2017-09-30T06:06:57.865Z,54.17
2017-09-30T06:09:28.082Z,44.40
2017-09-30T06:11:57.539Z,51.50
2017-09-30T06:14:26.267Z,47.13
2017-09-30T06:16:55.924Z,45.30
2017-09-30T06:19:24.357Z,46.57
2017-09-30T06:21:52.958Z,52.87
2017-09-30T06:24:21.491Z,53.07
2017-09-30T06:26:50.644Z,51.60
2017-09-30T06:29:20.456Z,49.87
2017-09-30T06:31:49.390Z,48.80
2017-09-30T06:34:17.804Z,46.23
2017-09-30T06:36:47.497Z,46.67
2017-09-30T06:39:16.122Z,45.93
2017-09-30T06:41:46.001Z,43.10
2017-09-30T06:44:14.573Z,43.37
2017-09-30T06:46:43.597Z,40.40
2017-09-30T06:49:11.995Z,40.70
2017-09-30T06:51:40.574Z,40.47
2017-09-30T06:54:09.184Z,44.07
2017-09-30T06:56:38.428Z,37.60
2017-09-30T06:59:08.250Z,37.60
2017-09-30T07:01:38.263Z,35.43
2017-09-30T07:04:08.454Z,37.90
2017-09-30T07:06:37.013Z,36.47
2017-09-30T07:09:06.049Z,38.30
2017-09-30T07:11:34.520Z,37.07
2017-09-30T07:14:02.969Z,36.83
2017-09-30T07:16:31.433Z,38.10
2017-09-30T07:18:59.869Z,36.27
2017-09-30T07:21:29.065Z,37.17
2017-09-30T07:23:57.503Z,31.83
2017-09-30T07:26:26.035Z,35.33
2017-09-30T07:28:54.789Z,32.43
2017-09-30T07:31:24.173Z,32.53
2017-09-30T07:33:52.658Z,31.77
2017-09-30T07:36:21.808Z,32.27
2017-09-30T07:38:51.663Z,33.10
2017-09-30T07:41:21.855Z,28.57
2017-09-30T07:43:50.349Z,30.03
2017-09-30T07:46:18.758Z,33.03
2017-09-30T07:48:47.149Z,32.40
2017-09-30T07:51:15.730Z,32.93
2017-09-30T07:53:44.258Z,32.20
2017-09-30T07:56:12.653Z,30.27
2017-09-30T07:58:41.715Z,31.30
2017-09-30T08:01:11.435Z,31.93
2017-09-30T08:03:41.289Z,30.27
2017-09-30T08:06:10.853Z,28.33
2017-09-30T08:08:40.866Z,28.87
2017-09-30T08:11:10.221Z,30.60
2017-09-30T08:13:38.613Z,30.33
2017-09-30T08:16:09.833Z,29.70
2017-09-30T08:18:39.401Z,29.63
2017-09-30T08:21:08.576Z,29.37
2017-09-30T08:23:39.418Z,27.90
2017-09-30T08:26:08.039Z,30.43
2017-09-30T08:28:37.016Z,27.90
2017-09-30T08:31:06.740Z,31.30
2017-09-30T08:33:36.456Z,30.30
2017-09-30T08:36:07.824Z,29.43
2017-09-30T08:38:37.005Z,31.50
2017-09-30T08:41:06.315Z,30.43
2017-09-30T08:43:35.910Z,31.40
2017-09-30T08:46:07.590Z,30.20
2017-09-30T08:48:36.948Z,29.37
2017-09-30T08:51:05.371Z,31.00
2017-09-30T08:53:34.130Z,33.47
2017-09-30T08:56:05.680Z,32.27
2017-09-30T08:58:34.050Z,33.33
2017-09-30T09:01:03.404Z,31.93
2017-09-30T09:03:31.820Z,31.40
2017-09-30T09:06:00.333Z,30.97
2017-09-30T09:08:29.594Z,34.00
2017-09-30T09:10:58.807Z,32.77
2017-09-30T09:13:28.050Z,33.00
2017-09-30T09:15:56.970Z,32.37
2017-09-30T09:18:25.361Z,32.60
2017-09-30T09:20:53.826Z,30.07
2017-09-30T09:23:22.619Z,31.07
2017-09-30T09:25:51.094Z,31.37
2017-09-30T09:28:20.422Z,30.77
2017-09-30T09:30:49.632Z,30.50
2017-09-30T09:33:18.169Z,31.17
2017-09-30T09:35:47.627Z,30.13
2017-09-30T09:38:16.240Z,32.77
2017-09-30T09:40:44.925Z,29.77
2017-09-30T09:43:13.400Z,30.23
2017-09-30T09:45:42.651Z,31.33
2017-09-30T09:48:11.093Z,31.77
2017-09-30T09:50:39.904Z,31.30
2017-09-30T09:53:08.494Z,28.40
2017-09-30T09:55:36.926Z,27.80
2017-09-30T09:58:05.750Z,28.63
2017-09-30T10:00:34.326Z,26.20
2017-09-30T10:03:02.740Z,28.60
2017-09-30T10:05:31.925Z,27.80
2017-09-30T10:08:00.508Z,27.80
2017-09-30T10:10:30.874Z,27.23
2017-09-30T10:13:00.247Z,24.80
2017-09-30T10:15:28.811Z,25.60
2017-09-30T10:20:32.566Z,25.80
2017-09-30T10:23:01.706Z,24.50
2017-09-30T10:25:30.134Z,26.27
2017-09-30T10:27:58.597Z,23.77
2017-09-30T10:30:27.818Z,27.60
2017-09-30T10:32:57.849Z,24.50
2017-09-30T10:35:26.374Z,23.20
2017-09-30T10:37:55.581Z,23.00
2017-09-30T10:40:24.068Z,21.07
2017-09-30T10:42:53.420Z,24.53
2017-09-30T10:45:23.543Z,23.20
2017-09-30T10:47:51.997Z,23.53
2017-09-30T10:50:20.899Z,21.07
2017-09-30T10:52:49.382Z,23.00
2017-09-30T10:55:18.274Z,24.10
2017-09-30T10:57:47.205Z,23.67
2017-09-30T11:00:15.599Z,23.67
2017-09-30T11:02:45.593Z,19.87
2017-09-30T11:05:14.229Z,19.23
2017-09-30T11:07:42.626Z,21.37
2017-09-30T11:10:11.113Z,20.13
2017-09-30T11:12:39.690Z,18.80
2017-09-30T11:15:08.130Z,17.73
2017-09-30T11:17:36.662Z,18.90
2017-09-30T11:20:06.055Z,16.00
2017-09-30T11:22:34.514Z,12.83
2017-09-30T11:25:03.633Z,13.97
2017-09-30T11:27:32.083Z,16.60
2017-09-30T11:30:00.492Z,16.03
2017-09-30T11:32:28.939Z,14.93
2017-09-30T11:34:57.439Z,16.70
2017-09-30T11:37:25.938Z,16.40
2017-09-30T11:39:54.694Z,13.27
2017-09-30T11:42:23.562Z,17.17
2017-09-30T11:44:51.971Z,16.23
2017-09-30T11:47:20.533Z,14.43
2017-09-30T11:49:49.808Z,17.13
2017-09-30T11:52:18.220Z,12.97
2017-09-30T11:54:47.679Z,14.57
2017-09-30T11:57:17.326Z,16.17
2017-09-30T11:59:46.626Z,14.47
2017-09-30T12:02:15.081Z,14.60
2017-09-30T12:04:43.731Z,15.00
2017-09-30T12:07:12.092Z,15.43
2017-09-30T12:09:40.575Z,14.63
2017-09-30T12:12:09.061Z,14.33
2017-09-30T12:14:37.509Z,17.47
2017-09-30T12:17:06.685Z,15.23
2017-09-30T12:19:35.298Z,15.47
2017-09-30T12:22:04.633Z,14.90
2017-09-30T12:24:33.450Z,14.20
2017-09-30T12:27:02.070Z,17.57
2017-09-30T12:29:31.202Z,18.50
2017-09-30T12:31:59.627Z,16.77
2017-09-30T12:34:28.343Z,15.50
2017-09-30T12:36:57.632Z,17.50
2017-09-30T12:39:26.917Z,16.60
2017-09-30T12:41:55.852Z,16.40
2017-09-30T12:44:24.391Z,16.10
2017-09-30T12:46:53.569Z,17.80
2017-09-30T12:49:22.004Z,14.97
2017-09-30T12:51:51.267Z,16.93
2017-09-30T12:54:20.489Z,17.73
2017-09-30T12:56:49.051Z,17.30
2017-09-30T12:59:18.298Z,15.70
2017-09-30T13:01:47.132Z,16.23
2017-09-30T13:04:15.905Z,16.57
2017-09-30T13:06:44.310Z,15.37
2017-09-30T13:09:13.457Z,15.37
2017-09-30T13:11:41.952Z,16.50
2017-09-30T13:14:10.381Z,16.00
2017-09-30T13:16:38.897Z,16.67
2017-09-30T13:19:07.985Z,15.63
2017-09-30T13:21:36.372Z,15.97
2017-09-30T13:24:06.229Z,14.07
2017-09-30T13:26:35.645Z,15.80
2017-09-30T13:29:04.796Z,15.73
2017-09-30T13:31:35.868Z,13.80
2017-09-30T13:34:05.911Z,14.03
2017-09-30T13:36:34.351Z,15.40
2017-09-30T13:39:03.522Z,14.37
2017-09-30T13:41:32.086Z,14.60
2017-09-30T13:44:00.857Z,14.73
2017-09-30T13:46:29.393Z,16.67
2017-09-30T13:48:58.858Z,14.73
2017-09-30T13:51:27.371Z,16.37
2017-09-30T13:53:55.770Z,14.87
2017-09-30T13:56:24.319Z,16.93
2017-09-30T13:58:52.793Z,16.83
2017-09-30T14:01:21.212Z,16.70
2017-09-30T14:03:51.115Z,14.13
2017-09-30T14:06:19.569Z,13.57
2017-09-30T14:08:47.976Z,15.17
2017-09-30T14:11:16.504Z,15.30
2017-09-30T14:13:44.940Z,15.60
2017-09-30T14:16:13.378Z,15.50
2017-09-30T14:18:41.942Z,16.30
2017-09-30T14:21:10.956Z,16.27
2017-09-30T14:23:40.218Z,16.47
2017-09-30T14:26:09.554Z,16.80
2017-09-30T14:28:39.207Z,13.93
2017-09-30T14:31:08.352Z,6.00
2017-09-30T14:33:36.758Z,7.00
2017-09-30T14:38:39.675Z,3.77
2017-09-30T14:41:08.046Z,5.17
2017-09-30T14:43:36.425Z,2.87
2017-09-30T14:46:05.519Z,2.77
2017-09-30T14:48:34.111Z,2.90
2017-09-30T14:51:02.598Z,2.53
2017-09-30T14:53:31.106Z,3.00
2017-09-30T14:56:00.308Z,1.80
2017-09-30T14:58:28.690Z,2.17
2017-09-30T15:00:57.131Z,1.80
2017-09-30T15:03:25.683Z,1.40
2017-09-30T15:05:54.089Z,1.03
2017-09-30T15:08:22.880Z,1.70
2017-09-30T15:10:51.229Z,1.77
2017-09-30T15:13:19.584Z,1.57
2017-09-30T15:15:48.125Z,1.43
2017-09-30T15:18:16.500Z,1.40
2017-09-30T15:20:45.808Z,1.77
2017-09-30T15:23:14.210Z,2.30
2017-09-30T15:25:43.327Z,1.57
2017-09-30T15:28:11.871Z,1.60
2017-09-30T15:30:41.055Z,1.93
2017-09-30T15:33:09.450Z,1.33
2017-09-30T15:35:38.927Z,1.80
2017-09-30T15:38:07.335Z,2.10
2017-09-30T15:40:36.527Z,2.00
2017-09-30T15:43:04.898Z,1.80
2017-09-30T15:45:33.462Z,2.47
2017-09-30T15:48:02.148Z,2.97
2017-09-30T15:50:30.535Z,2.50
2017-09-30T15:52:59.071Z,2.20
2017-09-30T15:55:27.439Z,2.17
2017-09-30T15:57:59.050Z,2.33
2017-09-30T16:00:27.571Z,2.20
2017-09-30T16:02:56.713Z,1.60
2017-09-30T16:05:25.416Z,1.90
2017-09-30T16:07:53.837Z,2.80
2017-09-30T16:10:22.232Z,1.90
2017-09-30T16:12:50.592Z,1.93
2017-09-30T16:15:19.320Z,2.10
2017-09-30T16:17:48.558Z,4.43
2017-09-30T16:20:17.701Z,3.07
2017-09-30T16:22:46.118Z,2.13
2017-09-30T16:25:14.482Z,2.50
2017-09-30T16:27:43.657Z,2.00
2017-09-30T16:30:12.111Z,2.93
2017-09-30T16:32:40.460Z,2.13
2017-09-30T16:35:08.824Z,2.03
2017-09-30T16:37:37.311Z,1.77
2017-09-30T16:40:05.674Z,2.50
2017-09-30T16:42:34.074Z,2.70
2017-09-30T16:45:02.755Z,2.60
2017-09-30T16:47:31.111Z,2.40
2017-09-30T16:49:59.883Z,2.00
2017-09-30T16:52:29.309Z,2.17
2017-09-30T16:54:57.749Z,2.93
2017-09-30T16:57:26.101Z,2.10
2017-09-30T16:59:55.366Z,2.73
2017-09-30T17:02:23.746Z,2.60
2017-09-30T17:04:52.142Z,3.23
2017-09-30T17:07:21.018Z,2.43
2017-09-30T17:09:49.406Z,2.97
2017-09-30T17:12:17.756Z,2.97
2017-09-30T17:14:46.288Z,2.87
2017-09-30T17:17:15.424Z,3.33
2017-09-30T17:19:43.839Z,3.20
2017-09-30T17:22:12.347Z,3.70
2017-09-30T17:24:40.739Z,4.03
2017-09-30T17:27:09.092Z,4.83
2017-09-30T17:29:37.472Z,2.47
2017-09-30T17:32:06.091Z,2.90
2017-09-30T17:34:34.443Z,3.50
2017-09-30T17:37:03.612Z,4.37
2017-09-30T17:39:32.001Z,2.47
2017-09-30T17:42:00.380Z,2.73
2017-09-30T17:44:28.797Z,2.50
2017-09-30T17:46:57.193Z,2.70
2017-09-30T17:49:25.590Z,3.00
2017-09-30T17:51:54.269Z,3.27
2017-09-30T17:54:22.621Z,3.47
2017-09-30T17:56:51.120Z,3.10
2017-09-30T17:59:19.509Z,2.30
2017-09-30T18:01:47.858Z,3.17
2017-09-30T18:04:16.220Z,2.87
2017-09-30T18:06:45.602Z,2.43
2017-09-30T18:09:14.015Z,2.60
2017-09-30T18:11:42.367Z,2.60
2017-09-30T18:14:11.548Z,2.03
2017-09-30T18:16:39.958Z,2.17
2017-09-30T18:19:09.083Z,2.20
2017-09-30T18:21:37.888Z,2.60
2017-09-30T18:24:06.248Z,2.50
2017-09-30T18:26:34.623Z,2.97
2017-09-30T18:29:03.018Z,2.50
2017-09-30T18:31:31.397Z,2.13
2017-09-30T18:33:59.797Z,2.20
2017-09-30T18:36:28.205Z,1.93
2017-09-30T18:38:57.328Z,1.50
2017-09-30T18:41:25.696Z,1.23
2017-09-30T18:43:54.111Z,1.90
2017-09-30T18:46:22.499Z,2.00
2017-09-30T18:48:50.888Z,3.17
2017-09-30T18:51:20.215Z,3.30
2017-09-30T18:53:49.757Z,3.60
2017-09-30T18:56:18.121Z,2.90
2017-09-30T18:58:46.757Z,2.30
2017-09-30T19:01:15.113Z,2.60
2017-09-30T19:03:43.480Z,1.70
2017-09-30T19:06:12.182Z,2.17
2017-09-30T19:08:40.538Z,1.80
2017-09-30T19:11:08.952Z,2.40
2017-09-30T19:13:37.532Z,2.10
2017-09-30T19:16:05.906Z,1.80
2017-09-30T19:18:34.317Z,2.30
2017-09-30T19:21:02.816Z,2.43
2017-09-30T19:23:31.253Z,2.60
2017-09-30T19:25:59.603Z,2.60
2017-09-30T19:28:28.008Z,3.63
2017-09-30T19:30:56.369Z,2.97
2017-09-30T19:33:24.765Z,3.23
2017-09-30T19:35:53.300Z,3.50
2017-09-30T19:38:21.657Z,2.77
2017-09-30T19:40:50.045Z,2.70
2017-09-30T19:43:19.217Z,2.20
2017-09-30T19:45:47.566Z,3.13
2017-09-30T19:48:15.957Z,2.10
2017-09-30T19:50:44.651Z,1.73
2017-09-30T19:53:13.013Z,2.23
2017-09-30T19:55:41.505Z,3.27
2017-09-30T19:58:09.917Z,3.70
2017-09-30T20:00:39.152Z,2.67
2017-09-30T20:03:07.529Z,3.50
2017-09-30T20:05:36.424Z,3.77
2017-09-30T20:08:04.794Z,3.27
2017-09-30T20:10:33.151Z,4.40
2017-09-30T20:13:02.716Z,2.77
2017-09-30T20:15:31.110Z,3.80
2017-09-30T20:17:59.460Z,3.47
2017-09-30T20:20:27.856Z,3.80
2017-09-30T20:22:56.203Z,3.53
2017-09-30T20:25:24.587Z,3.80
2017-09-30T20:27:52.978Z,3.70
2017-09-30T20:30:21.332Z,3.20
2017-09-30T20:32:49.696Z,3.10
2017-09-30T20:35:18.089Z,3.23
2017-09-30T20:37:46.657Z,3.10
2017-09-30T20:40:15.053Z,3.50
2017-09-30T20:42:43.663Z,2.90
2017-09-30T20:45:12.048Z,3.40
2017-09-30T20:47:40.419Z,2.70
2017-09-30T20:50:09.101Z,3.30
2017-09-30T20:52:37.465Z,3.43
2017-09-30T20:55:05.818Z,3.23
2017-09-30T20:57:34.680Z,3.43
2017-09-30T21:00:03.110Z,4.23
2017-09-30T21:02:31.522Z,4.70
2017-09-30T21:05:00.307Z,5.37
2017-09-30T21:07:28.680Z,5.37
2017-09-30T21:09:57.041Z,6.63
2017-09-30T21:12:25.586Z,5.30
2017-09-30T21:14:54.916Z,5.90
2017-09-30T21:17:23.278Z,4.73
2017-09-30T21:19:51.971Z,4.53
2017-09-30T21:22:20.332Z,5.40
2017-09-30T21:24:48.775Z,5.20
2017-09-30T21:27:17.530Z,6.10
2017-09-30T21:29:45.882Z,5.90
2017-09-30T21:32:14.259Z,5.00
2017-09-30T21:34:42.667Z,4.47
2017-09-30T21:37:11.011Z,3.87
2017-09-30T21:39:40.183Z,4.00
2017-09-30T21:42:08.588Z,5.03
2017-09-30T21:44:37.726Z,5.67
2017-09-30T21:47:06.079Z,6.03
2017-09-30T21:49:34.811Z,5.97
2017-09-30T21:52:03.203Z,7.53
2017-09-30T21:54:31.567Z,7.13
2017-09-30T21:57:00.155Z,4.90
2017-09-30T21:59:28.912Z,5.63
2017-09-30T22:01:57.267Z,5.43
2017-09-30T22:04:25.833Z,4.70
2017-09-30T22:06:54.960Z,4.60
2017-09-30T22:09:23.304Z,4.00
2017-09-30T22:11:52.695Z,4.30
2017-09-30T22:14:21.847Z,3.97
2017-09-30T22:16:50.499Z,4.03
2017-09-30T22:19:20.080Z,5.10
2017-09-30T22:21:48.460Z,4.67
2017-09-30T22:24:17.614Z,4.90
2017-09-30T22:26:46.244Z,6.07
2017-09-30T22:29:15.430Z,5.63
2017-09-30T22:31:43.801Z,4.60
2017-09-30T22:34:12.197Z,5.20
2017-09-30T22:36:40.592Z,5.63
2017-09-30T22:39:09.734Z,5.57
2017-09-30T22:41:38.529Z,5.03
2017-09-30T22:44:06.903Z,4.73
2017-09-30T22:46:35.497Z,5.40
2017-09-30T22:49:04.023Z,5.33
2017-09-30T22:51:33.171Z,6.77
2017-09-30T22:54:01.561Z,5.57
2017-09-30T22:56:29.975Z,5.20
2017-09-30T22:58:59.086Z,5.27
2017-09-30T23:01:27.824Z,5.40
2017-09-30T23:03:56.211Z,5.40
2017-09-30T23:06:24.606Z,4.83
2017-09-30T23:08:53.725Z,4.87
2017-09-30T23:11:22.098Z,5.40
2017-09-30T23:13:51.230Z,5.23
2017-09-30T23:16:19.574Z,5.70
2017-09-30T23:18:48.323Z,6.00
2017-09-30T23:21:16.694Z,6.30
2017-09-30T23:23:45.814Z,6.03
2017-09-30T23:26:15.039Z,5.60
2017-09-30T23:28:43.398Z,6.33
2017-09-30T23:31:12.535Z,5.40
2017-09-30T23:33:41.256Z,6.00
2017-09-30T23:36:09.618Z,6.40
2017-09-30T23:38:37.971Z,7.60
2017-09-30T23:41:06.751Z,6.37
2017-09-30T23:43:35.379Z,6.30
2017-09-30T23:46:03.731Z,5.50
2017-09-30T23:48:32.918Z,7.50
2017-09-30T23:51:01.266Z,7.77
2017-09-30T23:53:30.399Z,7.30
2017-09-30T23:55:58.807Z,7.80
2017-09-30T23:58:27.187Z,8.50
